Liberty, Iowa
Current Conditions -  °F | °C
As of 10:35 AM on Thursday 23 Oct 2014 (Local Time) from KI75 Reporting Station
Overcast Overcast  
Wind Chill: 58°   Ceiling: 700
Heat Index: 58°   Visibility: 10mi
Dew Point: 55°   Wind: 7mph
Humidity: 90%   Direction: 230°SW
Pressure: 30.06"   Gusts: NA
Location:  41.1554°N, 93.6829°W
Report Text: KI75 231535Z AUTO 23006KT 10SM BKN007 OVC036 15/13 A3006 RMK AO2 T01470130
Loading
Personal Weather Stations






























Interactive Weather Map
Tropical Storm Tracking
New forecast layout! Learn more

10-Day Weather Forecast

Advertisements
Track Severe Weather on mobile